Inicio METAR Ruta Wind Satelite

Informe Meteorológico

Fecha: 2020/07/02 01:12:51 Local
2020.07.02 06:12 UTC


Estado: VENCIDO
Operación:VFR
Ibague / Perales, Colombia (SKIB) 04-26N 075-09W
2020.07.01 2300 UTC
Wind: from the NNE (020 degrees) at 3 MPH (3 KT):0
Visibility: greater than 7 mile(s):0
Sky conditions: partly cloudy
Temperature: 75 F (24 C)
Dew Point: 71 F (22 C)
Relative Humidity: 88%
Pressure (altimeter): 30 in. Hg (1015 hPa)
ob: SKIB 012300Z 02003KT 9999 SCT030 SCT100 24/22 A3000
cycle: 23

SKIB 012200Z 06009KT 9999 SCT030 SCT100 25/22 A2998
SKIB 012100Z 09008KT 9999 BKN030 SCT100 26/22 A2997
SKIB 012000Z 11007KT 9999 BKN030 SCT100 25/22 A3000
SKIB 011900Z 14006KT 9999 BKN030 BKN100 24/22 A3003
SKIB 011800Z 12004KT 9999 SCT023 BKN100 24/22 A3006